TAF and METAR

Could not understand the following METAR

YPKU 141505Z AUTO 06005KT 8000 // NCD 28/25 Q1003

TAF for Kununurra Airport

TAF YPKU 141250Z 1414/1502 35005KT CAVOK
Report created 14. des 13:50

between 14. des 15:00 - 15. des 03:00

wind 5 knots from N (350°) Clear sky
Kununurra Airport in Australia at 45m

Latest 5 airports